createdAt,value
2019-05-23T00:00:56.311Z,99.90
2019-05-23T00:03:39.264Z,99.90
2019-05-23T00:06:12.248Z,99.90
2019-05-23T00:08:41.314Z,99.90
2019-05-23T00:11:32.608Z,99.90
2019-05-23T00:14:05.802Z,99.90
2019-05-23T00:16:34.549Z,99.90
2019-05-23T00:19:03.003Z,99.90
2019-05-23T00:21:32.939Z,99.90
2019-05-23T00:24:03.919Z,99.90
2019-05-23T00:26:34.109Z,99.90
2019-05-23T00:29:09.986Z,99.90
2019-05-23T00:31:40.919Z,99.90
2019-05-23T00:34:10.789Z,99.90
2019-05-23T00:36:39.845Z,99.90
2019-05-23T00:39:09.150Z,99.90
2019-05-23T00:41:39.684Z,99.90
2019-05-23T00:44:08.677Z,99.90
2019-05-23T00:46:37.871Z,99.90
2019-05-23T00:49:08.236Z,99.90
2019-05-23T00:51:38.674Z,99.90
2019-05-23T00:54:07.249Z,99.90
2019-05-23T00:56:37.165Z,99.90
2019-05-23T00:59:06.037Z,99.90
2019-05-23T01:01:34.951Z,99.90
2019-05-23T01:04:03.757Z,99.90
2019-05-23T01:06:33.860Z,99.90
2019-05-23T01:09:02.990Z,99.90
2019-05-23T01:11:33.215Z,99.90
2019-05-23T01:14:02.218Z,99.90
2019-05-23T01:16:31.890Z,99.90
2019-05-23T01:19:00.335Z,99.90
2019-05-23T01:21:48.959Z,99.90
2019-05-23T01:24:19.340Z,99.90
2019-05-23T01:26:48.204Z,99.90
2019-05-23T01:29:17.939Z,99.90
2019-05-23T01:31:48.101Z,99.90
2019-05-23T01:34:16.706Z,99.90
2019-05-23T01:36:45.714Z,99.90
2019-05-23T01:39:14.577Z,99.90
2019-05-23T01:41:43.146Z,99.90
2019-05-23T01:44:12.324Z,99.90
2019-05-23T01:46:41.556Z,99.90
2019-05-23T01:49:11.675Z,99.90
2019-05-23T01:51:40.182Z,99.90
2019-05-23T01:54:09.488Z,99.90
2019-05-23T01:56:39.305Z,99.90
2019-05-23T01:59:08.298Z,99.90
2019-05-23T02:01:39.034Z,99.90
2019-05-23T02:04:08.195Z,99.90
2019-05-23T02:06:36.644Z,99.90
2019-05-23T02:09:08.840Z,99.90
2019-05-23T02:11:37.739Z,99.90
2019-05-23T02:14:07.854Z,99.90
2019-05-23T02:16:37.808Z,99.90
2019-05-23T02:19:07.065Z,99.90
2019-05-23T02:21:35.619Z,99.90
2019-05-23T02:24:05.288Z,99.90
2019-05-23T02:26:35.651Z,99.90
2019-05-23T02:29:04.913Z,99.90
2019-05-23T02:31:33.766Z,99.90
2019-05-23T02:34:02.970Z,99.90
2019-05-23T02:36:32.256Z,99.90
2019-05-23T02:39:09.138Z,99.90
2019-05-23T02:41:39.424Z,99.90
2019-05-23T02:44:09.653Z,99.90
2019-05-23T02:46:42.736Z,99.90
2019-05-23T02:49:13.296Z,99.90
2019-05-23T02:51:43.462Z,99.90
2019-05-23T02:54:12.521Z,99.90
2019-05-23T02:56:41.774Z,99.90
2019-05-23T02:59:13.278Z,99.90
2019-05-23T03:02:02.897Z,99.90
2019-05-23T03:04:33.025Z,99.90
2019-05-23T03:07:03.149Z,99.90
2019-05-23T03:09:33.707Z,99.90
2019-05-23T03:12:04.051Z,99.90
2019-05-23T03:14:34.319Z,99.90
2019-05-23T03:17:03.544Z,99.90
2019-05-23T03:19:38.724Z,99.90
2019-05-23T03:22:30.946Z,99.90
2019-05-23T03:25:01.460Z,99.90
2019-05-23T03:27:32.241Z,99.90
2019-05-23T03:30:02.340Z,99.90
2019-05-23T03:32:44.818Z,99.90
2019-05-23T03:35:16.108Z,99.90
2019-05-23T03:37:45.878Z,99.90
2019-05-23T03:40:15.473Z,99.90
2019-05-23T03:42:43.920Z,99.90
2019-05-23T03:45:14.302Z,99.90
2019-05-23T03:47:45.826Z,99.90
2019-05-23T03:50:14.407Z,99.90
2019-05-23T03:52:43.873Z,99.90
2019-05-23T03:55:13.156Z,99.90
2019-05-23T03:57:42.009Z,99.90
2019-05-23T04:00:14.710Z,99.90
2019-05-23T04:02:44.602Z,99.90
2019-05-23T04:05:13.094Z,99.90
2019-05-23T04:07:42.656Z,99.90
2019-05-23T04:10:12.330Z,99.90
2019-05-23T04:12:40.979Z,99.90
2019-05-23T04:15:11.327Z,99.90
2019-05-23T04:17:39.750Z,99.90
2019-05-23T04:20:09.093Z,99.90
2019-05-23T04:22:38.592Z,99.90
2019-05-23T04:25:10.002Z,99.90
2019-05-23T04:27:38.669Z,99.90
2019-05-23T04:30:09.341Z,99.90
2019-05-23T04:32:38.139Z,99.90
2019-05-23T04:35:06.974Z,99.90
2019-05-23T04:37:36.072Z,99.90
2019-05-23T04:40:09.001Z,99.90
2019-05-23T04:42:37.440Z,99.90
2019-05-23T04:45:07.004Z,99.90
2019-05-23T04:47:37.537Z,99.90
2019-05-23T04:50:12.050Z,99.90
2019-05-23T04:52:40.917Z,99.90
2019-05-23T04:55:11.869Z,99.90
2019-05-23T04:57:40.810Z,99.90
2019-05-23T05:00:12.939Z,99.90
2019-05-23T05:02:42.233Z,99.90
2019-05-23T05:05:11.688Z,99.90
2019-05-23T05:07:40.497Z,99.90
2019-05-23T05:10:11.934Z,99.90
2019-05-23T05:12:41.122Z,99.90
2019-05-23T05:15:10.701Z,99.90
2019-05-23T05:17:39.539Z,99.90
2019-05-23T05:20:08.869Z,99.90
2019-05-23T05:22:37.491Z,99.90
2019-05-23T05:25:07.933Z,99.90
2019-05-23T05:27:36.625Z,99.90
2019-05-23T05:30:08.177Z,99.90
2019-05-23T05:32:44.570Z,99.90
2019-05-23T05:35:08.336Z,99.90
2019-05-23T05:37:37.014Z,99.90
2019-05-23T05:40:08.328Z,99.90
2019-05-23T05:42:37.747Z,99.90
2019-05-23T05:45:09.736Z,99.90
2019-05-23T05:47:38.976Z,99.90
2019-05-23T05:50:09.516Z,99.90
2019-05-23T05:52:38.999Z,99.90
2019-05-23T05:55:08.817Z,99.90
2019-05-23T05:57:37.414Z,99.90
2019-05-23T06:00:12.778Z,99.90
2019-05-23T06:02:41.148Z,99.90
2019-05-23T06:05:12.345Z,99.90
2019-05-23T06:07:44.859Z,99.90
2019-05-23T06:10:15.579Z,99.90
2019-05-23T06:12:44.187Z,99.90
2019-05-23T06:15:13.146Z,99.90
2019-05-23T06:17:42.410Z,99.90
2019-05-23T06:20:11.737Z,99.90
2019-05-23T06:22:40.539Z,99.90
2019-05-23T06:25:10.277Z,99.90
2019-05-23T06:27:40.252Z,99.90
2019-05-23T06:30:13.039Z,99.90
2019-05-23T06:32:41.475Z,99.90
2019-05-23T06:35:10.402Z,99.90
2019-05-23T06:37:39.730Z,99.90
2019-05-23T06:40:08.895Z,99.90
2019-05-23T06:42:37.338Z,99.90
2019-05-23T06:45:09.280Z,99.90
2019-05-23T06:47:39.375Z,99.90
2019-05-23T06:50:11.356Z,99.90
2019-05-23T06:52:39.859Z,99.90
2019-05-23T06:55:08.329Z,99.90
2019-05-23T06:57:36.895Z,99.90
2019-05-23T07:00:08.673Z,99.90
2019-05-23T07:02:37.488Z,99.90
2019-05-23T07:05:06.507Z,99.90
2019-05-23T07:07:35.998Z,99.90
2019-05-23T07:10:07.248Z,99.90
2019-05-23T07:12:36.547Z,99.90
2019-05-23T07:15:06.511Z,99.90
2019-05-23T07:17:35.297Z,99.90
2019-05-23T07:20:05.917Z,99.90
2019-05-23T07:22:34.623Z,99.90
2019-05-23T07:25:04.410Z,99.90
2019-05-23T07:27:33.005Z,99.90
2019-05-23T07:30:01.892Z,99.90
2019-05-23T07:32:30.577Z,99.90
2019-05-23T07:34:59.006Z,99.90
2019-05-23T07:37:28.216Z,99.90
2019-05-23T07:39:56.813Z,99.90
2019-05-23T07:42:25.240Z,99.90
2019-05-23T07:44:55.334Z,99.90
2019-05-23T07:47:24.231Z,99.90
2019-05-23T07:49:52.655Z,99.90
2019-05-23T07:52:21.379Z,99.90
2019-05-23T07:54:51.471Z,99.90
2019-05-23T07:57:20.426Z,99.90
2019-05-23T07:59:49.432Z,99.90
2019-05-23T08:02:25.415Z,99.90
2019-05-23T08:04:53.211Z,99.90
2019-05-23T08:07:23.655Z,99.90
2019-05-23T08:09:52.528Z,99.90
2019-05-23T08:12:21.069Z,99.90
2019-05-23T08:14:52.659Z,99.90
2019-05-23T08:17:21.319Z,99.90
2019-05-23T08:19:50.585Z,99.90
2019-05-23T08:22:19.424Z,99.90
2019-05-23T08:24:51.597Z,99.90
2019-05-23T08:27:20.395Z,99.90
2019-05-23T08:29:49.392Z,99.90
2019-05-23T08:32:17.880Z,99.90
2019-05-23T08:34:46.655Z,99.90
2019-05-23T08:37:15.538Z,99.90
2019-05-23T08:39:44.369Z,99.90
2019-05-23T08:42:13.654Z,99.90
2019-05-23T08:44:42.976Z,99.90
2019-05-23T08:47:11.747Z,99.90
2019-05-23T08:49:40.239Z,99.90
2019-05-23T08:52:08.757Z,99.90
2019-05-23T08:54:37.247Z,99.90
2019-05-23T08:57:06.960Z,99.90
2019-05-23T08:59:35.912Z,99.90
2019-05-23T09:02:05.376Z,99.90
2019-05-23T09:04:34.101Z,99.90
2019-05-23T09:07:02.821Z,99.90
2019-05-23T09:09:31.721Z,99.90
2019-05-23T09:12:00.397Z,99.90
2019-05-23T09:14:29.127Z,99.90
2019-05-23T09:16:57.652Z,99.90
2019-05-23T09:19:26.213Z,99.90
2019-05-23T09:21:57.976Z,99.90
2019-05-23T09:24:25.481Z,99.90
2019-05-23T09:26:53.960Z,99.90
2019-05-23T09:29:22.584Z,99.90
2019-05-23T09:31:51.350Z,99.90
2019-05-23T09:34:20.797Z,99.90
2019-05-23T09:36:49.376Z,99.90
2019-05-23T09:39:18.741Z,99.60
2019-05-23T09:41:47.272Z,99.40
2019-05-23T09:44:15.762Z,99.30
2019-05-23T09:46:44.288Z,98.50
2019-05-23T09:49:12.735Z,96.50
2019-05-23T09:51:41.248Z,96.50
2019-05-23T09:54:09.697Z,95.50
2019-05-23T09:56:38.603Z,94.80
2019-05-23T09:59:07.218Z,94.90
2019-05-23T10:01:35.697Z,92.80
2019-05-23T10:04:04.632Z,93.90
2019-05-23T10:06:33.144Z,94.20
2019-05-23T10:09:01.734Z,93.50
2019-05-23T10:11:30.397Z,93.40
2019-05-23T10:13:59.016Z,93.20
2019-05-23T10:16:27.723Z,92.40
2019-05-23T10:18:56.324Z,92.40
2019-05-23T10:21:25.096Z,92.30
2019-05-23T10:23:53.522Z,91.30
2019-05-23T10:26:22.105Z,91.50
2019-05-23T10:28:50.548Z,89.50
2019-05-23T10:31:20.042Z,91.50
2019-05-23T10:33:48.546Z,91.80
2019-05-23T10:36:16.977Z,91.80
2019-05-23T10:38:45.646Z,91.00
2019-05-23T10:41:14.148Z,90.00
2019-05-23T10:43:42.775Z,88.90
2019-05-23T10:46:11.691Z,88.70
2019-05-23T10:48:40.981Z,88.00
2019-05-23T10:51:09.591Z,85.50
2019-05-23T10:53:38.069Z,84.50
2019-05-23T10:56:06.549Z,86.50
2019-05-23T10:58:35.495Z,88.20
2019-05-23T11:01:04.251Z,89.50
2019-05-23T11:03:33.148Z,86.50
2019-05-23T11:06:14.679Z,85.70
2019-05-23T11:08:31.742Z,86.50
2019-05-23T11:11:00.425Z,87.30
2019-05-23T11:13:29.395Z,86.30
2019-05-23T11:15:58.117Z,85.60
2019-05-23T11:18:26.594Z,84.20
2019-05-23T11:20:55.064Z,83.90
2019-05-23T11:23:25.425Z,85.00
2019-05-23T11:25:54.187Z,84.40
2019-05-23T11:28:22.965Z,83.10
2019-05-23T11:30:53.299Z,83.00
2019-05-23T11:33:21.736Z,82.10
2019-05-23T11:35:51.892Z,82.60
2019-05-23T11:38:22.575Z,83.30
2019-05-23T11:40:51.428Z,80.80
2019-05-23T11:43:19.928Z,82.00
2019-05-23T11:45:50.163Z,81.30
2019-05-23T11:48:18.693Z,80.90
2019-05-23T11:50:47.333Z,81.90
2019-05-23T11:53:15.834Z,80.70
2019-05-23T11:55:44.344Z,82.40
2019-05-23T11:58:12.969Z,81.70
2019-05-23T12:00:55.424Z,80.40
2019-05-23T12:03:24.188Z,81.10
2019-05-23T12:05:53.529Z,80.90
2019-05-23T12:08:22.611Z,80.70
2019-05-23T12:10:51.033Z,80.30
2019-05-23T12:13:19.845Z,79.90
2019-05-23T12:15:48.712Z,79.50
2019-05-23T12:18:17.413Z,78.50
2019-05-23T12:20:45.853Z,75.90
2019-05-23T12:23:14.537Z,76.10
2019-05-23T12:25:43.062Z,75.70
2019-05-23T12:28:12.369Z,72.10
2019-05-23T12:30:41.266Z,73.10
2019-05-23T12:33:09.756Z,73.20
2019-05-23T12:35:38.304Z,72.80
2019-05-23T12:38:06.907Z,73.90
2019-05-23T12:40:35.566Z,73.60
2019-05-23T12:43:04.469Z,73.00
2019-05-23T12:45:33.304Z,72.40
2019-05-23T12:48:09.136Z,72.10
2019-05-23T12:50:45.133Z,71.80
2019-05-23T12:53:15.367Z,70.60
2019-05-23T12:55:44.003Z,68.90
2019-05-23T12:58:12.519Z,69.60
2019-05-23T13:00:43.176Z,70.40
2019-05-23T13:03:15.761Z,69.50
2019-05-23T13:05:44.755Z,68.40
2019-05-23T13:08:13.358Z,68.10
2019-05-23T13:10:41.943Z,68.00
2019-05-23T13:13:10.506Z,66.60
2019-05-23T13:15:39.053Z,67.70
2019-05-23T13:18:07.489Z,68.40
2019-05-23T13:20:36.587Z,69.80
2019-05-23T13:23:05.250Z,69.50
2019-05-23T13:25:33.851Z,69.20
2019-05-23T13:28:02.324Z,68.40
2019-05-23T13:30:30.847Z,68.30
2019-05-23T13:33:03.423Z,67.30
2019-05-23T13:35:30.156Z,66.80
2019-05-23T13:37:58.654Z,66.60
2019-05-23T13:40:28.082Z,64.80
2019-05-23T13:42:56.750Z,65.10
2019-05-23T13:45:25.359Z,63.70
2019-05-23T13:47:53.833Z,61.00
2019-05-23T13:50:22.515Z,61.80
2019-05-23T13:52:51.042Z,62.30
2019-05-23T13:55:20.209Z,62.20
2019-05-23T13:57:48.734Z,63.00
2019-05-23T14:00:18.166Z,60.90
2019-05-23T14:02:47.464Z,61.80
2019-05-23T14:05:19.174Z,63.10
2019-05-23T14:07:48.359Z,63.90
2019-05-23T14:10:17.519Z,63.80
2019-05-23T14:12:51.680Z,63.20
2019-05-23T14:15:21.898Z,63.20
2019-05-23T14:17:50.790Z,61.60
2019-05-23T14:20:20.013Z,62.40
2019-05-23T14:23:06.317Z,61.30
2019-05-23T14:25:36.328Z,59.60
2019-05-23T14:28:06.630Z,58.80
2019-05-23T14:30:42.747Z,59.00
2019-05-23T14:33:27.592Z,59.50
2019-05-23T14:35:57.772Z,59.00
2019-05-23T14:38:31.221Z,58.60
2019-05-23T14:40:58.308Z,58.20
2019-05-23T14:43:27.656Z,58.20
2019-05-23T14:46:10.069Z,58.00
2019-05-23T14:48:40.519Z,58.50
2019-05-23T14:51:29.074Z,58.20
2019-05-23T14:54:02.176Z,57.50
2019-05-23T14:56:36.120Z,56.80
2019-05-23T14:59:04.990Z,56.80
2019-05-23T15:01:35.024Z,56.40
2019-05-23T15:04:04.505Z,55.90
2019-05-23T15:06:33.327Z,55.40
2019-05-23T15:09:01.912Z,55.40
2019-05-23T15:11:30.519Z,56.00
2019-05-23T15:13:58.960Z,57.00
2019-05-23T15:16:27.608Z,57.00
2019-05-23T15:18:56.294Z,57.20
2019-05-23T15:21:24.746Z,57.90
2019-05-23T15:23:53.325Z,58.40
2019-05-23T15:26:23.683Z,58.20
2019-05-23T15:28:52.247Z,57.60
2019-05-23T15:31:21.410Z,57.10
2019-05-23T15:33:49.857Z,57.40
2019-05-23T15:36:18.556Z,57.40
2019-05-23T15:38:47.070Z,57.30
2019-05-23T15:41:15.531Z,58.20
2019-05-23T15:43:44.214Z,58.50
2019-05-23T15:46:12.949Z,58.30
2019-05-23T15:48:41.558Z,58.40
2019-05-23T15:51:11.694Z,60.50
2019-05-23T15:53:42.852Z,59.10
2019-05-23T15:56:26.769Z,60.50
2019-05-23T15:58:51.062Z,60.60
2019-05-23T16:01:30.356Z,59.80
2019-05-23T16:04:06.433Z,61.30
2019-05-23T16:06:39.193Z,62.00
2019-05-23T16:09:27.558Z,60.60
2019-05-23T16:11:41.463Z,60.50
2019-05-23T16:14:10.170Z,60.90
2019-05-23T16:16:39.131Z,61.10
2019-05-23T16:19:10.034Z,61.60
2019-05-23T16:21:40.566Z,62.20
2019-05-23T16:24:11.870Z,63.20
2019-05-23T16:26:40.596Z,65.70
2019-05-23T16:29:11.240Z,62.20
2019-05-23T16:31:39.862Z,65.30
2019-05-23T16:34:08.352Z,62.50
2019-05-23T16:36:37.322Z,62.30
2019-05-23T16:39:08.024Z,61.50
2019-05-23T16:41:36.604Z,62.00
2019-05-23T16:44:05.385Z,63.10
2019-05-23T16:46:33.964Z,63.20
2019-05-23T16:49:02.561Z,63.00
2019-05-23T16:51:31.216Z,63.40
2019-05-23T16:54:00.121Z,63.10
2019-05-23T16:56:30.619Z,63.80
2019-05-23T16:59:06.498Z,64.40
2019-05-23T17:01:54.780Z,64.80
2019-05-23T17:04:17.478Z,64.70
2019-05-23T17:06:56.718Z,64.90
2019-05-23T17:09:44.843Z,65.50
2019-05-23T17:12:17.625Z,65.10
2019-05-23T17:14:53.838Z,65.40
2019-05-23T17:18:00.817Z,64.80
2019-05-23T17:20:29.350Z,65.10
2019-05-23T17:22:59.954Z,64.90
2019-05-23T17:25:39.043Z,64.60
2019-05-23T17:28:09.307Z,65.50
2019-05-23T17:30:48.491Z,65.60
2019-05-23T17:33:17.459Z,66.10
2019-05-23T17:35:46.029Z,66.30
2019-05-23T17:38:19.368Z,66.90
2019-05-23T17:40:47.893Z,67.80
2019-05-23T17:43:16.518Z,67.30
2019-05-23T17:45:45.440Z,67.00
2019-05-23T17:48:14.396Z,66.90
2019-05-23T17:50:43.005Z,66.70
2019-05-23T17:53:11.565Z,67.00
2019-05-23T17:55:40.120Z,67.10
2019-05-23T17:58:08.777Z,68.00
2019-05-23T18:00:41.632Z,68.50
2019-05-23T18:03:16.610Z,69.30
2019-05-23T18:05:45.264Z,69.40
2019-05-23T18:08:14.999Z,69.50
2019-05-23T18:10:45.617Z,69.50
2019-05-23T18:13:16.446Z,69.70
2019-05-23T18:15:45.900Z,70.70
2019-05-23T18:18:14.702Z,71.20
2019-05-23T18:20:44.401Z,72.70
2019-05-23T18:23:16.033Z,72.30
2019-05-23T18:25:44.958Z,73.30
2019-05-23T18:28:15.139Z,71.80
2019-05-23T18:30:45.372Z,73.90
2019-05-23T18:33:16.338Z,74.30
2019-05-23T18:35:45.044Z,73.90
2019-05-23T18:38:13.561Z,72.20
2019-05-23T18:40:42.191Z,72.40
2019-05-23T18:43:12.960Z,73.00
2019-05-23T18:45:41.552Z,73.30
2019-05-23T18:48:11.674Z,72.80
2019-05-23T18:50:42.003Z,72.60
2019-05-23T18:53:13.042Z,71.40
2019-05-23T18:55:42.068Z,71.70
2019-05-23T18:58:10.641Z,72.20
2019-05-23T19:00:55.034Z,73.20
2019-05-23T19:03:23.637Z,73.80
2019-05-23T19:05:58.071Z,74.90
2019-05-23T19:08:27.094Z,75.90
2019-05-23T19:10:55.821Z,75.80
2019-05-23T19:13:26.598Z,76.20
2019-05-23T19:15:54.598Z,74.40
2019-05-23T19:18:24.003Z,73.50
2019-05-23T19:20:54.862Z,74.10
2019-05-23T19:23:24.484Z,76.30
2019-05-23T19:25:55.199Z,74.90
2019-05-23T19:28:25.081Z,74.60
2019-05-23T19:30:55.107Z,75.60
2019-05-23T19:33:45.030Z,76.30
2019-05-23T19:36:14.261Z,76.90
2019-05-23T19:38:43.171Z,78.20
2019-05-23T19:41:12.337Z,78.20
2019-05-23T19:43:43.048Z,80.20
2019-05-23T19:46:25.864Z,78.00
2019-05-23T19:48:56.641Z,78.00
2019-05-23T19:51:27.175Z,78.30
2019-05-23T19:53:57.345Z,79.10
2019-05-23T19:56:34.983Z,80.50
2019-05-23T19:59:13.498Z,80.90
2019-05-23T20:01:59.440Z,80.20
2019-05-23T20:04:31.241Z,80.60
2019-05-23T20:07:02.628Z,82.50
2019-05-23T20:12:24.206Z,83.70
2019-05-23T20:15:00.147Z,83.00
2019-05-23T20:17:31.851Z,82.40
2019-05-23T20:20:00.431Z,83.40
2019-05-23T20:22:29.196Z,84.10
2019-05-23T20:25:02.139Z,86.10
2019-05-23T20:27:30.850Z,87.30
2019-05-23T20:30:01.077Z,87.90
2019-05-23T20:32:31.200Z,88.80
2019-05-23T20:34:59.700Z,88.70
2019-05-23T20:37:29.755Z,88.70
2019-05-23T20:39:58.190Z,90.00
2019-05-23T20:42:26.999Z,88.60
2019-05-23T20:44:55.428Z,88.40
2019-05-23T20:47:24.651Z,87.70
2019-05-23T20:49:53.077Z,89.50
2019-05-23T20:52:21.520Z,90.10
2019-05-23T20:54:51.519Z,90.80
2019-05-23T20:57:23.168Z,91.30
2019-05-23T20:59:53.289Z,91.40
2019-05-23T21:02:24.775Z,92.00
2019-05-23T21:04:53.225Z,92.70
2019-05-23T21:07:21.731Z,93.50
2019-05-23T21:09:50.159Z,93.40
2019-05-23T21:12:29.655Z,92.70
2019-05-23T21:14:48.882Z,93.40
2019-05-23T21:17:17.568Z,94.50
2019-05-23T21:19:46.124Z,94.90
2019-05-23T21:22:14.585Z,94.60
2019-05-23T21:24:43.289Z,94.10
2019-05-23T21:27:11.753Z,94.70
2019-05-23T21:29:40.415Z,95.00
2019-05-23T21:32:13.322Z,94.60
2019-05-23T21:34:39.167Z,95.10
2019-05-23T21:37:07.626Z,95.30
2019-05-23T21:39:37.265Z,95.50
2019-05-23T21:42:05.763Z,97.10
2019-05-23T21:44:34.327Z,96.80
2019-05-23T21:47:02.830Z,97.40
2019-05-23T21:49:31.332Z,98.50
2019-05-23T21:51:59.752Z,98.20
2019-05-23T21:54:28.201Z,97.70
2019-05-23T21:56:56.679Z,97.60
2019-05-23T21:59:25.104Z,97.70
2019-05-23T22:01:55.273Z,97.80
2019-05-23T22:04:28.028Z,98.10
2019-05-23T22:06:58.402Z,98.30
2019-05-23T22:09:27.087Z,98.70
2019-05-23T22:11:55.780Z,98.90
2019-05-23T22:14:24.271Z,99.10
2019-05-23T22:16:52.943Z,99.30
2019-05-23T22:19:21.742Z,99.40
2019-05-23T22:21:50.242Z,99.60
2019-05-23T22:24:19.724Z,99.90
2019-05-23T22:26:48.230Z,99.90
2019-05-23T22:29:16.832Z,99.90
2019-05-23T22:31:45.433Z,99.90
2019-05-23T22:34:28.148Z,99.90
2019-05-23T22:36:57.030Z,99.90
2019-05-23T22:39:25.693Z,99.90
2019-05-23T22:41:54.558Z,99.90
2019-05-23T22:44:23.049Z,99.90
2019-05-23T22:46:51.515Z,99.90
2019-05-23T22:49:20.015Z,99.90
2019-05-23T22:51:48.520Z,99.90
2019-05-23T22:54:17.029Z,99.90
2019-05-23T22:56:45.457Z,99.90
2019-05-23T22:59:13.885Z,99.90
2019-05-23T23:01:42.331Z,99.90
2019-05-23T23:04:11.185Z,99.90
2019-05-23T23:06:39.638Z,99.90
2019-05-23T23:09:08.117Z,99.90
2019-05-23T23:11:36.550Z,99.90
2019-05-23T23:14:05.389Z,99.90
2019-05-23T23:16:33.975Z,99.90
2019-05-23T23:19:02.702Z,99.90
2019-05-23T23:21:31.447Z,99.90
2019-05-23T23:23:59.848Z,99.90
2019-05-23T23:26:28.266Z,99.90
2019-05-23T23:28:56.702Z,99.90
2019-05-23T23:31:25.123Z,99.90
2019-05-23T23:33:53.571Z,99.90
2019-05-23T23:36:22.258Z,99.90
2019-05-23T23:38:50.729Z,99.90
2019-05-23T23:41:19.207Z,99.90
2019-05-23T23:43:58.728Z,99.90
2019-05-23T23:46:36.013Z,99.90
2019-05-23T23:49:22.491Z,99.90
2019-05-23T23:52:09.151Z,99.90
2019-05-23T23:54:55.898Z,99.90
2019-05-23T23:57:42.507Z,99.90
